»·PEaware :: DAL2841 KSLC-KPDX

DAL2841 :: KSLC-KPDX

FLIGHT INFORMATION

Flight Status: Arrived
Operator:
Delta Air Lines
More flights by this operator :: More flights under this callsign
Pilot: Patricio R. (14780)
Aircraft: AIRBUS A320
(A320)
More flights by this aircraft type
Origin: KSLC Salt Lake City Intl
United States
Destination: KPDX Portland Intl
United States
More flights between these airports :: More routes between these airports
Route: CGULL1 TWF J15 BOI J163 BKE JOTBA HHOOD4
File this flight plan on PilotEdge
Remarks: PBN / A1B1C1D1O1S1 DOF / 180711 REG / FFA320 EET / KZSE0056 OPR / DAL PER / C RMK / TCAS SIMBRIEF
Altitude:
(Current/Filed)
32,000ft
Speed:
(Current/Filed)
422kts
Departed: 10-Jul-18 06:18 PM
Arrived: 10-Jul-18 07:50 PM
Distance/Time
Traveled:
546nm/1:32
Distance/Time
To Go:
Arrived

Flight Plot

Page will automatically refresh every two minutes.

Flight plan parsing failed; only flown route is shown


Map Options




Map Legend


Flown Route
Filed Route
Departure Airport
Arrival Airport
Navaid (VOR, NDB)
Fix

Horizontal Profiles

Position Reports

Time Latitude Longitude Heading Altitude Ground
Speed
10-Jul-18 17:57 40.788270 -111.982052 103 4236ft 0kts
10-Jul-18 17:58 40.788270 -111.982052 103 4236ft 0kts
10-Jul-18 17:59 40.788270 -111.982052 103 4236ft 0kts
10-Jul-18 18:00 40.788270 -111.982052 103 4236ft 0kts
10-Jul-18 18:01 40.788270 -111.982052 103 4236ft 0kts
10-Jul-18 18:02 40.788270 -111.982052 103 4236ft 0kts
10-Jul-18 18:03 40.788270 -111.982052 103 4236ft 0kts
10-Jul-18 18:04 40.788270 -111.982052 103 4236ft 0kts
10-Jul-18 18:05 40.788270 -111.982052 103 4236ft 0kts
10-Jul-18 18:06 40.788270 -111.982052 103 4236ft 0kts
10-Jul-18 18:07 40.788347 -111.982491 102 4236ft 2kts
10-Jul-18 18:08 40.788177 -111.982940 1 4236ft 1kts
10-Jul-18 18:09 40.788144 -111.982943 5 4236ft 0kts
10-Jul-18 18:10 40.788144 -111.982943 5 4236ft 0kts
10-Jul-18 18:11 40.788144 -111.982943 5 4236ft 0kts
10-Jul-18 18:12 40.788177 -111.982939 5 4236ft 3kts
10-Jul-18 18:13 40.789946 -111.981496 83 4236ft 12kts
10-Jul-18 18:14 40.790276 -111.977642 92 4236ft 8kts
10-Jul-18 18:15 40.785133 -111.976530 175 4236ft 23kts
10-Jul-18 18:16 40.779214 -111.975698 156 4236ft 14kts
10-Jul-18 18:17 40.774929 -111.974840 173 4236ft 6kts
10-Jul-18 18:18 40.775373 -111.973220 357 4236ft 12kts
10-Jul-18 18:19 40.808678 -111.977118 354 4905ft 181kts
10-Jul-18 18:20 40.847820 -112.018184 302 6948ft 224kts
10-Jul-18 18:21 40.886677 -112.099223 302 8778ft 289kts
10-Jul-18 18:22 40.932653 -112.191439 302 11043ft 327kts
10-Jul-18 18:23 40.986275 -112.297380 302 13088ft 358kts
10-Jul-18 18:24 41.042741 -112.408108 302 15480ft 370kts
10-Jul-18 18:25 41.100029 -112.519729 302 17684ft 380kts
10-Jul-18 18:26 41.159345 -112.634598 303 19713ft 391kts
10-Jul-18 18:27 41.221305 -112.753817 302 21590ft 401kts
10-Jul-18 18:28 41.286340 -112.876480 308 23315ft 414kts
10-Jul-18 18:29 41.369097 -112.985586 312 24876ft 427kts
10-Jul-18 18:30 41.454394 -113.098012 312 26342ft 437kts
10-Jul-18 18:31 41.541298 -113.213300 312 27738ft 444kts
10-Jul-18 18:32 41.629155 -113.330334 312 29003ft 452kts
10-Jul-18 18:33 41.718526 -113.449867 312 30123ft 459kts
10-Jul-18 18:34 41.808106 -113.570192 311 31610ft 455kts
10-Jul-18 18:35 41.895372 -113.687892 311 32175ft 451kts
10-Jul-18 18:36 41.983721 -113.807545 311 32177ft 453kts
10-Jul-18 18:37 42.072047 -113.927661 311 32175ft 452kts
10-Jul-18 18:38 42.159200 -114.046684 311 32172ft 452kts
10-Jul-18 18:39 42.246195 -114.165986 311 32182ft 451kts
10-Jul-18 18:40 42.334795 -114.288002 311 32195ft 452kts
10-Jul-18 18:41 42.422637 -114.409490 311 32206ft 453kts
10-Jul-18 18:42 42.508358 -114.533435 308 32213ft 452kts
10-Jul-18 18:43 42.589095 -114.658336 307 32213ft 452kts
10-Jul-18 18:44 42.670675 -114.785083 307 32208ft 452kts
10-Jul-18 18:45 42.752947 -114.913491 307 32199ft 452kts
10-Jul-18 18:46 42.835140 -115.042325 307 32197ft 451kts
10-Jul-18 18:47 42.909277 -115.159024 306 32188ft 446kts
10-Jul-18 18:48 42.988379 -115.284059 305 32177ft 438kts
10-Jul-18 18:49 43.067046 -115.408934 305 32129ft 430kts
10-Jul-18 18:50 43.143607 -115.530979 304 32089ft 426kts
10-Jul-18 18:51 43.219154 -115.651913 304 32090ft 426kts
10-Jul-18 18:52 43.294528 -115.773072 304 32112ft 427kts
10-Jul-18 18:53 43.371330 -115.897051 304 32149ft 429kts
10-Jul-18 18:54 43.448625 -116.022367 304 32172ft 430kts
10-Jul-18 18:55 43.525615 -116.147730 304 32172ft 430kts
10-Jul-18 18:56 43.611800 -116.263922 312 32155ft 437kts
10-Jul-18 18:57 43.702374 -116.374756 312 32140ft 437kts
10-Jul-18 18:58 43.793151 -116.486252 312 32134ft 436kts
10-Jul-18 18:59 43.883625 -116.597828 312 32136ft 436kts
10-Jul-18 19:00 43.971905 -116.707154 311 32144ft 437kts
10-Jul-18 19:01 44.062211 -116.819460 311 32148ft 437kts
10-Jul-18 19:02 44.151325 -116.930757 312 32145ft 435kts
10-Jul-18 19:03 44.240110 -117.042112 313 32146ft 433kts
10-Jul-18 19:04 44.329221 -117.154350 314 32128ft 431kts
10-Jul-18 19:05 44.411710 -117.258676 314 32158ft 431kts
10-Jul-18 19:06 44.500507 -117.371443 314 32266ft 431kts
10-Jul-18 19:07 44.588969 -117.484267 314 32264ft 431kts
10-Jul-18 19:08 44.677090 -117.597145 314 32263ft 431kts
10-Jul-18 19:09 44.762596 -117.707136 313 32268ft 431kts
10-Jul-18 19:10 44.838920 -117.833398 291 32283ft 424kts
10-Jul-18 19:11 44.865226 -117.994038 278 32275ft 420kts
10-Jul-18 19:12 44.886172 -118.155151 279 32253ft 419kts
10-Jul-18 19:13 44.906969 -118.316531 279 32242ft 418kts
10-Jul-18 19:14 44.927500 -118.477695 279 32245ft 418kts
10-Jul-18 19:15 44.947834 -118.639229 279 32257ft 418kts
10-Jul-18 19:16 44.967032 -118.793527 278 32278ft 418kts
10-Jul-18 19:17 44.986910 -118.955232 278 32303ft 416kts
10-Jul-18 19:18 45.006343 -119.115268 278 32280ft 412kts
10-Jul-18 19:19 45.025299 -119.273257 278 32233ft 408kts
10-Jul-18 19:20 45.043920 -119.430347 278 32206ft 404kts
10-Jul-18 19:21 45.062165 -119.586147 279 32198ft 401kts
10-Jul-18 19:22 45.079738 -119.738048 278 32198ft 399kts
10-Jul-18 19:23 45.096860 -119.887846 278 32193ft 396kts
10-Jul-18 19:24 45.112939 -120.030407 278 31723ft 371kts
10-Jul-18 19:25 45.128397 -120.169080 278 30533ft 347kts
10-Jul-18 19:26 45.143016 -120.301315 278 28942ft 336kts
10-Jul-18 19:27 45.158328 -120.440833 278 27212ft 367kts
10-Jul-18 19:28 45.188484 -120.575713 296 25399ft 361kts
10-Jul-18 19:29 45.234972 -120.696285 296 23680ft 354kts
10-Jul-18 19:30 45.280846 -120.815764 296 21954ft 347kts
10-Jul-18 19:31 45.326543 -120.935226 296 20220ft 341kts
10-Jul-18 19:32 45.371216 -121.052497 297 18513ft 336kts
10-Jul-18 19:33 45.415110 -121.168028 297 16822ft 330kts
10-Jul-18 19:34 45.445619 -121.289457 285 15172ft 324kts
10-Jul-18 19:35 45.469718 -121.411711 285 13554ft 319kts
10-Jul-18 19:36 45.493014 -121.529571 285 12470ft 292kts
10-Jul-18 19:37 45.514090 -121.636662 286 11040ft 284kts
10-Jul-18 19:38 45.530456 -121.742780 273 9783ft 271kts
10-Jul-18 19:39 45.534048 -121.843590 273 9234ft 238kts
10-Jul-18 19:40 45.537377 -121.936908 274 8185ft 236kts
10-Jul-18 19:41 45.541798 -122.029630 268 7156ft 234kts
10-Jul-18 19:42 45.510038 -122.106139 235 6610ft 215kts
10-Jul-18 19:43 45.476706 -122.173323 244 5952ft 204kts
10-Jul-18 19:44 45.478614 -122.251630 278 5141ft 199kts
10-Jul-18 19:45 45.490772 -122.326855 298 4186ft 188kts
10-Jul-18 19:46 45.514023 -122.387912 299 2853ft 150kts
10-Jul-18 19:47 45.533128 -122.437086 299 2115ft 141kts
10-Jul-18 19:48 45.551868 -122.485633 300 1350ft 138kts
10-Jul-18 19:49 45.570142 -122.532658 300 602ft 133kts
10-Jul-18 19:50 45.587737 -122.577723 303 39ft 112kts
10-Jul-18 19:51 45.592092 -122.592600 268 38ft 13kts
10-Jul-18 19:52 45.591775 -122.595120 196 38ft 2kts

Navigation Log

Ident Type
Flight plan parsing failed, navigation log unavailable